createdAt,value
2023-05-09T00:02:17.270Z,99374.38
2023-05-09T00:04:44.280Z,99372.23
2023-05-09T00:07:11.204Z,99375.26
2023-05-09T00:09:37.989Z,99374.70
2023-05-09T00:12:05.142Z,99374.34
2023-05-09T00:14:33.677Z,99371.12
2023-05-09T00:17:01.258Z,99370.06
2023-05-09T00:19:28.066Z,99367.15
2023-05-09T00:21:54.848Z,99365.69
2023-05-09T00:24:21.660Z,99363.30
2023-05-09T00:26:48.392Z,99363.23
2023-05-09T00:29:15.264Z,99357.62
2023-05-09T00:31:42.057Z,99357.71
2023-05-09T00:34:08.792Z,99358.89
2023-05-09T00:36:35.588Z,99360.09
2023-05-09T00:39:02.319Z,99357.90
2023-05-09T00:41:29.089Z,99353.06
2023-05-09T00:43:55.866Z,99353.52
2023-05-09T00:46:23.012Z,99355.44
2023-05-09T00:48:50.443Z,99352.77
2023-05-09T00:51:17.346Z,99343.02
2023-05-09T00:53:45.758Z,99345.16
2023-05-09T00:56:13.223Z,99346.11
2023-05-09T00:58:40.216Z,99339.63
2023-05-09T01:01:07.102Z,99346.07
2023-05-09T01:03:35.072Z,99344.42
2023-05-09T01:06:04.251Z,99342.98
2023-05-09T01:08:47.295Z,99342.66
2023-05-09T01:11:34.462Z,99342.63
2023-05-09T01:14:15.805Z,99345.63
2023-05-09T01:16:55.169Z,99340.96
2023-05-09T01:19:49.099Z,99339.99
2023-05-09T01:22:16.656Z,99338.44
2023-05-09T01:24:57.420Z,99337.08
2023-05-09T01:27:45.328Z,99335.89
2023-05-09T01:30:13.998Z,99334.31
2023-05-09T01:32:43.442Z,99329.97
2023-05-09T01:35:14.840Z,99329.59
2023-05-09T01:37:44.821Z,99328.95
2023-05-09T01:40:15.659Z,99326.45
2023-05-09T01:42:51.434Z,99327.61
2023-05-09T01:45:20.116Z,99324.98
2023-05-09T01:47:49.164Z,99331.56
2023-05-09T01:50:18.824Z,99325.27
2023-05-09T01:52:49.054Z,99327.81
2023-05-09T01:55:18.073Z,99322.64
2023-05-09T01:57:45.836Z,99324.09
2023-05-09T02:00:15.230Z,99321.95
2023-05-09T02:02:43.376Z,99323.27
2023-05-09T02:05:12.313Z,99322.66
2023-05-09T02:07:42.185Z,99322.77
2023-05-09T02:10:11.014Z,99319.24
2023-05-09T02:12:39.081Z,99319.94
2023-05-09T02:15:07.467Z,99318.94
2023-05-09T02:17:34.276Z,99318.98
2023-05-09T02:20:01.171Z,99317.16
2023-05-09T02:22:28.418Z,99319.34
2023-05-09T02:24:55.408Z,99315.79
2023-05-09T02:27:22.704Z,99313.71
2023-05-09T02:29:55.948Z,99310.21
2023-05-09T02:32:25.946Z,99309.45
2023-05-09T02:34:54.341Z,99307.46
2023-05-09T02:37:21.956Z,99306.62
2023-05-09T02:39:48.776Z,99302.44
2023-05-09T02:42:22.779Z,99300.64
2023-05-09T02:44:49.555Z,99300.95
2023-05-09T02:47:16.297Z,99299.16
2023-05-09T02:49:43.132Z,99300.91
2023-05-09T02:52:11.235Z,99295.48
2023-05-09T02:54:38.652Z,99299.23
2023-05-09T02:57:05.841Z,99298.05
2023-05-09T02:59:32.992Z,99300.83
2023-05-09T03:01:59.738Z,99300.81
2023-05-09T03:04:27.996Z,99303.03
2023-05-09T03:06:54.884Z,99299.62
2023-05-09T03:09:21.596Z,99301.84
2023-05-09T03:11:48.313Z,99298.36
2023-05-09T03:14:15.596Z,99300.29
2023-05-09T03:16:42.324Z,99302.56
2023-05-09T03:19:09.100Z,99296.78
2023-05-09T03:21:36.045Z,99306.73
2023-05-09T03:24:04.752Z,99307.21
2023-05-09T03:26:31.510Z,99305.59
2023-05-09T03:28:58.826Z,99301.10
2023-05-09T03:31:25.569Z,99306.36
2023-05-09T03:33:52.338Z,99308.35
2023-05-09T03:36:19.178Z,99304.80
2023-05-09T03:38:45.953Z,99308.13
2023-05-09T03:41:16.297Z,99306.42
2023-05-09T03:43:43.190Z,99307.06
2023-05-09T03:46:09.959Z,99307.73
2023-05-09T03:48:36.793Z,99310.23
2023-05-09T03:51:03.733Z,99306.64
2023-05-09T03:53:30.614Z,99311.20
2023-05-09T03:55:57.391Z,99314.20
2023-05-09T03:58:24.144Z,99317.70
2023-05-09T04:00:50.889Z,99316.83
2023-05-09T04:03:17.740Z,99316.48
2023-05-09T04:05:44.628Z,99312.13
2023-05-09T04:08:11.386Z,99308.35
2023-05-09T04:10:38.212Z,99305.02
2023-05-09T04:13:05.198Z,99302.19
2023-05-09T04:15:32.067Z,99303.57
2023-05-09T04:17:58.967Z,99304.77
2023-05-09T04:20:26.134Z,99303.23
2023-05-09T04:22:52.891Z,99302.62
2023-05-09T04:25:20.335Z,99301.13
2023-05-09T04:27:47.350Z,99304.14
2023-05-09T04:30:14.495Z,99301.73
2023-05-09T04:32:45.895Z,99304.66
2023-05-09T04:35:14.325Z,99306.10
2023-05-09T04:37:42.023Z,99302.26
2023-05-09T04:40:09.538Z,99303.54
2023-05-09T04:42:37.776Z,99304.04
2023-05-09T04:45:05.798Z,99297.84
2023-05-09T04:47:32.741Z,99302.64
2023-05-09T04:49:59.602Z,99301.27
2023-05-09T04:52:26.396Z,99300.05
2023-05-09T04:54:53.196Z,99303.27
2023-05-09T04:57:19.971Z,99302.87
2023-05-09T04:59:46.849Z,99303.58
2023-05-09T05:02:13.777Z,99307.67
2023-05-09T05:04:41.058Z,99308.58
2023-05-09T05:07:07.835Z,99305.93
2023-05-09T05:09:34.637Z,99306.80
2023-05-09T05:12:03.672Z,99303.90
2023-05-09T05:14:31.710Z,99300.86
2023-05-09T05:16:59.099Z,99299.75
2023-05-09T05:19:26.130Z,99302.77
2023-05-09T05:21:52.910Z,99303.80
2023-05-09T05:24:19.687Z,99303.33
2023-05-09T05:26:46.527Z,99295.70
2023-05-09T05:29:13.272Z,99295.91
2023-05-09T05:31:40.037Z,99292.00
2023-05-09T05:34:06.841Z,99288.70
2023-05-09T05:36:33.604Z,99288.70
2023-05-09T05:39:00.296Z,99288.48
2023-05-09T05:41:27.213Z,99292.54
2023-05-09T05:43:54.583Z,99297.27
2023-05-09T05:46:21.537Z,99296.73
2023-05-09T05:48:48.653Z,99293.95
2023-05-09T05:51:15.403Z,99286.64
2023-05-09T05:53:42.591Z,99288.26
2023-05-09T05:56:09.753Z,99280.34
2023-05-09T05:58:36.498Z,99281.45
2023-05-09T06:01:03.309Z,99278.39
2023-05-09T06:03:30.144Z,99281.13
2023-05-09T06:05:57.504Z,99290.52
2023-05-09T06:08:24.206Z,99284.55
2023-05-09T06:10:51.093Z,99288.70
2023-05-09T06:13:18.102Z,99287.75
2023-05-09T06:15:45.043Z,99289.84
2023-05-09T06:18:11.989Z,99285.95
2023-05-09T06:20:38.896Z,99288.58
2023-05-09T06:23:05.897Z,99283.20
2023-05-09T06:25:32.943Z,99285.30
2023-05-09T06:27:59.937Z,99288.98
2023-05-09T06:30:27.296Z,99283.36
2023-05-09T06:32:58.618Z,99277.66
2023-05-09T06:35:25.555Z,99275.34
2023-05-09T06:37:52.454Z,99281.95
2023-05-09T06:40:19.600Z,99279.62
2023-05-09T06:42:46.421Z,99280.84
2023-05-09T06:45:13.714Z,99275.19
2023-05-09T06:47:40.945Z,99269.48
2023-05-09T06:50:08.775Z,99270.23
2023-05-09T06:52:36.234Z,99272.88
2023-05-09T06:55:04.462Z,99265.99
2023-05-09T06:57:31.841Z,99266.27
2023-05-09T06:59:58.741Z,99265.89
2023-05-09T07:02:25.974Z,99260.75
2023-05-09T07:04:53.124Z,99268.07
2023-05-09T07:07:20.036Z,99262.08
2023-05-09T07:09:48.088Z,99256.34
2023-05-09T07:12:16.540Z,99256.71
2023-05-09T07:14:43.260Z,99259.77
2023-05-09T07:17:21.781Z,99256.50
2023-05-09T07:19:49.475Z,99252.34
2023-05-09T07:22:16.580Z,99240.16
2023-05-09T07:24:44.777Z,99237.87
2023-05-09T07:27:11.728Z,99234.83
2023-05-09T07:29:39.025Z,99239.56
2023-05-09T07:32:06.438Z,99233.53
2023-05-09T07:34:33.403Z,99231.93
2023-05-09T07:37:00.590Z,99236.33
2023-05-09T07:39:27.582Z,99237.17
2023-05-09T07:41:54.651Z,99235.55
2023-05-09T07:44:21.680Z,99229.28
2023-05-09T07:46:48.884Z,99235.39
2023-05-09T07:49:15.681Z,99230.85
2023-05-09T07:51:42.603Z,99219.99
2023-05-09T07:54:10.888Z,99216.09
2023-05-09T07:56:37.630Z,99231.33
2023-05-09T07:59:04.412Z,99235.43
2023-05-09T08:01:31.781Z,99217.89
2023-05-09T08:03:58.850Z,99214.25
2023-05-09T08:06:26.724Z,99209.76
2023-05-09T08:08:53.751Z,99210.09
2023-05-09T08:11:20.575Z,99211.52
2023-05-09T08:13:48.508Z,99220.58
2023-05-09T08:16:17.693Z,99211.94
2023-05-09T08:18:45.372Z,99202.06
2023-05-09T08:21:12.560Z,99203.81
2023-05-09T08:23:40.887Z,99199.24
2023-05-09T08:26:07.611Z,99186.39
2023-05-09T08:28:34.495Z,99184.66
2023-05-09T08:31:01.445Z,99202.91
2023-05-09T08:33:28.494Z,99205.42
2023-05-09T08:35:56.619Z,99198.44
2023-05-09T08:38:24.622Z,99200.95
2023-05-09T08:40:51.568Z,99191.36
2023-05-09T08:43:20.491Z,99186.50
2023-05-09T08:45:51.527Z,99194.10
2023-05-09T08:48:19.419Z,99190.80
2023-05-09T08:50:46.353Z,99189.57
2023-05-09T08:53:14.548Z,99175.84
2023-05-09T08:55:41.791Z,99182.76
2023-05-09T08:58:10.286Z,99172.27
2023-05-09T09:00:40.768Z,99184.77
2023-05-09T09:03:08.208Z,99174.45
2023-05-09T09:05:41.470Z,99177.42
2023-05-09T09:08:10.375Z,99180.94
2023-05-09T09:10:42.636Z,99176.64
2023-05-09T09:13:11.689Z,99181.45
2023-05-09T09:15:40.909Z,99177.98
2023-05-09T09:18:17.096Z,99172.03
2023-05-09T09:20:48.672Z,99161.17
2023-05-09T09:23:20.597Z,99155.98
2023-05-09T09:25:48.343Z,99155.98
2023-05-09T09:28:15.734Z,99157.27
2023-05-09T09:30:48.294Z,99173.08
2023-05-09T09:33:26.881Z,99160.08
2023-05-09T09:35:56.481Z,99162.21
2023-05-09T09:38:23.776Z,99147.98
2023-05-09T09:40:58.948Z,99154.33
2023-05-09T09:43:30.307Z,99147.83
2023-05-09T09:46:01.149Z,99149.08
2023-05-09T09:48:33.849Z,99145.66
2023-05-09T09:51:11.534Z,99144.48
2023-05-09T09:53:42.581Z,99144.25
2023-05-09T09:56:10.059Z,99151.52
2023-05-09T09:58:37.755Z,99143.86
2023-05-09T10:01:14.274Z,99140.44
2023-05-09T10:03:46.849Z,99126.67
2023-05-09T10:06:16.957Z,99127.11
2023-05-09T10:08:49.115Z,99135.85
2023-05-09T10:11:16.522Z,99136.02
2023-05-09T10:13:44.924Z,99135.18
2023-05-09T10:16:12.577Z,99134.80
2023-05-09T10:18:42.932Z,99132.52
2023-05-09T10:21:15.320Z,99127.41
2023-05-09T10:23:47.132Z,99131.80
2023-05-09T10:26:23.217Z,99129.65
2023-05-09T10:28:54.571Z,99137.10
2023-05-09T10:31:29.910Z,99133.50
2023-05-09T10:33:57.402Z,99125.61
2023-05-09T10:36:25.059Z,99129.23
2023-05-09T10:38:55.036Z,99126.99
2023-05-09T10:41:22.744Z,99120.08
2023-05-09T10:43:49.834Z,99124.61
2023-05-09T10:46:18.075Z,99117.31
2023-05-09T10:48:45.626Z,99106.68
2023-05-09T10:51:13.370Z,99109.03
2023-05-09T10:53:48.028Z,99100.23
2023-05-09T10:56:40.006Z,99103.43
2023-05-09T10:59:06.930Z,99100.30
2023-05-09T11:01:39.809Z,99103.33
2023-05-09T11:04:12.961Z,99098.34
2023-05-09T11:06:47.667Z,99098.60
2023-05-09T11:09:35.892Z,99098.86
2023-05-09T11:12:05.503Z,99091.11
2023-05-09T11:14:33.365Z,99085.80
2023-05-09T11:17:01.132Z,99087.09
2023-05-09T11:19:38.382Z,99074.27
2023-05-09T11:22:14.128Z,99065.61
2023-05-09T11:24:44.568Z,99063.42
2023-05-09T11:27:25.172Z,99059.52
2023-05-09T11:29:59.214Z,99064.50
2023-05-09T11:32:32.266Z,99061.79
2023-05-09T11:35:09.879Z,99064.52
2023-05-09T11:37:50.794Z,99062.89
2023-05-09T11:40:19.202Z,99061.15
2023-05-09T11:42:47.239Z,99060.12
2023-05-09T11:45:14.753Z,99056.77
2023-05-09T11:47:41.882Z,99056.36
2023-05-09T11:50:10.165Z,99043.16
2023-05-09T11:52:38.307Z,99050.86
2023-05-09T11:55:12.798Z,99051.29
2023-05-09T11:57:41.051Z,99035.33
2023-05-09T12:00:09.651Z,99034.54
2023-05-09T12:02:39.714Z,99023.95
2023-05-09T12:05:13.625Z,99016.14
2023-05-09T12:07:41.563Z,99030.16
2023-05-09T12:10:09.048Z,99025.61
2023-05-09T12:12:43.347Z,99013.49
2023-05-09T12:15:10.419Z,99011.80
2023-05-09T12:17:37.224Z,99015.55
2023-05-09T12:20:06.196Z,99024.70
2023-05-09T12:22:33.538Z,99009.85
2023-05-09T12:25:02.366Z,99010.48
2023-05-09T12:27:29.400Z,98998.34
2023-05-09T12:29:56.149Z,98999.59
2023-05-09T12:32:23.161Z,99004.59
2023-05-09T12:34:51.729Z,99003.77
2023-05-09T12:37:19.249Z,98987.41
2023-05-09T12:40:06.479Z,98993.23
2023-05-09T12:42:33.883Z,98995.11
2023-05-09T12:45:01.959Z,98982.30
2023-05-09T12:47:29.846Z,98986.63
2023-05-09T12:49:59.972Z,98989.38
2023-05-09T12:52:33.649Z,98987.48
2023-05-09T12:55:05.827Z,98978.17
2023-05-09T12:57:32.620Z,98981.41
2023-05-09T13:00:00.491Z,98974.45
2023-05-09T13:02:30.781Z,98968.63
2023-05-09T13:05:17.741Z,98970.80
2023-05-09T13:07:45.876Z,98966.64
2023-05-09T13:10:38.972Z,98970.02
2023-05-09T13:13:05.739Z,98966.50
2023-05-09T13:15:33.954Z,98970.30
2023-05-09T13:18:00.773Z,98959.31
2023-05-09T13:20:28.088Z,98958.84
2023-05-09T13:22:55.038Z,98948.38
2023-05-09T13:25:21.897Z,98946.98
2023-05-09T13:27:48.566Z,98943.13
2023-05-09T13:30:15.817Z,98953.58
2023-05-09T13:32:42.719Z,98958.89
2023-05-09T13:35:09.651Z,98952.96
2023-05-09T13:37:36.323Z,98949.48
2023-05-09T13:40:03.860Z,98947.86
2023-05-09T13:42:31.328Z,98944.39
2023-05-09T13:44:58.275Z,98936.31
2023-05-09T13:47:24.997Z,98944.85
2023-05-09T13:49:52.660Z,98934.84
2023-05-09T13:52:19.610Z,98930.91
2023-05-09T13:54:46.597Z,98937.96
2023-05-09T13:57:13.499Z,98929.14
2023-05-09T13:59:43.193Z,98920.11
2023-05-09T14:02:11.354Z,98918.83
2023-05-09T14:04:39.398Z,98910.39
2023-05-09T14:07:06.157Z,98909.34
2023-05-09T14:09:40.117Z,98914.61
2023-05-09T14:12:07.217Z,98918.63
2023-05-09T14:14:34.072Z,98907.19
2023-05-09T14:17:01.519Z,98905.20
2023-05-09T14:19:29.160Z,98904.54
2023-05-09T14:21:56.017Z,98909.47
2023-05-09T14:24:23.224Z,98900.57
2023-05-09T14:26:49.956Z,98897.74
2023-05-09T14:29:17.227Z,98908.97
2023-05-09T14:31:44.511Z,98908.93
2023-05-09T14:34:11.645Z,98906.78
2023-05-09T14:36:38.236Z,98904.55
2023-05-09T14:39:06.435Z,98903.10
2023-05-09T14:41:33.339Z,98902.30
2023-05-09T14:43:59.967Z,98894.50
2023-05-09T14:46:26.609Z,98885.64
2023-05-09T14:48:53.403Z,98887.83
2023-05-09T14:51:20.245Z,98886.20
2023-05-09T14:53:47.624Z,98892.51
2023-05-09T14:56:14.384Z,98880.76
2023-05-09T14:58:41.203Z,98883.41
2023-05-09T15:01:08.016Z,98877.69
2023-05-09T15:03:34.814Z,98874.88
2023-05-09T15:06:01.672Z,98885.14
2023-05-09T15:08:28.430Z,98885.88
2023-05-09T15:10:55.494Z,98873.10
2023-05-09T15:13:22.280Z,98876.64
2023-05-09T15:15:49.032Z,98871.86
2023-05-09T15:18:17.210Z,98872.41
2023-05-09T15:20:44.121Z,98869.05
2023-05-09T15:23:11.429Z,98857.31
2023-05-09T15:25:38.586Z,98859.74
2023-05-09T15:28:05.463Z,98851.98
2023-05-09T15:30:32.167Z,98857.52
2023-05-09T15:32:59.918Z,98852.83
2023-05-09T15:35:27.021Z,98850.67
2023-05-09T15:37:53.630Z,98848.60
2023-05-09T15:40:20.252Z,98850.17
2023-05-09T15:42:48.420Z,98845.13
2023-05-09T15:45:15.812Z,98837.98
2023-05-09T15:47:42.742Z,98838.97
2023-05-09T15:50:10.118Z,98836.59
2023-05-09T15:52:36.870Z,98834.52
2023-05-09T15:55:03.661Z,98831.09
2023-05-09T15:57:30.392Z,98828.70
2023-05-09T15:59:57.041Z,98824.95
2023-05-09T16:02:24.248Z,98816.82
2023-05-09T16:04:51.049Z,98815.05
2023-05-09T16:07:19.645Z,98816.02
2023-05-09T16:09:46.452Z,98815.08
2023-05-09T16:12:13.891Z,98811.89
2023-05-09T16:14:40.590Z,98806.16
2023-05-09T16:17:07.272Z,98805.34
2023-05-09T16:22:15.110Z,98802.89
2023-05-09T16:24:41.726Z,98795.35
2023-05-09T16:27:08.418Z,98804.08
2023-05-09T16:29:35.188Z,98802.19
2023-05-09T16:32:02.021Z,98797.63
2023-05-09T16:34:29.399Z,98799.82
2023-05-09T16:36:56.198Z,98796.26
2023-05-09T16:39:23.887Z,98785.86
2023-05-09T16:41:50.452Z,98785.04
2023-05-09T16:44:17.491Z,98779.63
2023-05-09T16:46:44.075Z,98779.98
2023-05-09T16:49:11.326Z,98782.50
2023-05-09T16:51:38.154Z,98780.45
2023-05-09T16:54:04.785Z,98775.66
2023-05-09T16:56:31.378Z,98781.91
2023-05-09T16:58:58.360Z,98779.03
2023-05-09T17:01:24.950Z,98778.55
2023-05-09T17:03:51.626Z,98774.15
2023-05-09T17:06:18.746Z,98774.76
2023-05-09T17:08:45.720Z,98771.29
2023-05-09T17:11:12.483Z,98768.63
2023-05-09T17:13:39.107Z,98765.63
2023-05-09T17:16:05.813Z,98765.36
2023-05-09T17:18:37.573Z,98759.84
2023-05-09T17:21:05.050Z,98763.44
2023-05-09T17:23:31.995Z,98761.54
2023-05-09T17:25:58.657Z,98758.25
2023-05-09T17:28:25.444Z,98764.78
2023-05-09T17:30:52.071Z,98767.59
2023-05-09T17:33:19.392Z,98764.20
2023-05-09T17:35:49.801Z,98761.13
2023-05-09T17:38:16.883Z,98756.05
2023-05-09T17:40:43.782Z,98758.10
2023-05-09T17:43:10.743Z,98760.67
2023-05-09T17:45:37.417Z,98761.61
2023-05-09T17:48:04.058Z,98760.08
2023-05-09T17:50:31.730Z,98760.45
2023-05-09T17:52:58.746Z,98757.70
2023-05-09T17:55:25.348Z,98757.24
2023-05-09T18:00:32.782Z,98757.81
2023-05-09T18:03:00.744Z,98759.38
2023-05-09T18:05:27.794Z,98759.46
2023-05-09T18:07:54.511Z,98757.89
2023-05-09T18:10:21.673Z,98756.75
2023-05-09T18:12:48.433Z,98758.89
2023-05-09T18:15:15.194Z,98752.34
2023-05-09T18:17:41.832Z,98752.85
2023-05-09T18:20:08.808Z,98753.65
2023-05-09T18:22:37.367Z,98753.02
2023-05-09T18:25:04.128Z,98757.33
2023-05-09T18:27:30.847Z,98758.42
2023-05-09T18:29:57.439Z,98764.63
2023-05-09T18:32:24.139Z,98765.73
2023-05-09T18:34:50.839Z,98768.35
2023-05-09T18:37:17.928Z,98766.92
2023-05-09T18:39:44.983Z,98767.44
2023-05-09T18:42:13.921Z,98773.82
2023-05-09T18:44:42.054Z,98780.98
2023-05-09T18:47:09.240Z,98770.45
2023-05-09T18:49:36.295Z,98774.13
2023-05-09T18:52:03.565Z,98774.23
2023-05-09T18:54:30.178Z,98771.48
2023-05-09T18:56:56.785Z,98773.59
2023-05-09T18:59:24.277Z,98771.72
2023-05-09T19:01:51.222Z,98768.48
2023-05-09T19:04:19.645Z,98768.77
2023-05-09T19:06:46.989Z,98768.33
2023-05-09T19:09:13.636Z,98767.10
2023-05-09T19:11:40.316Z,98766.63
2023-05-09T19:14:07.462Z,98769.88
2023-05-09T19:16:34.236Z,98769.27
2023-05-09T19:19:00.917Z,98768.05
2023-05-09T19:21:28.364Z,98764.00
2023-05-09T19:23:55.068Z,98763.63
2023-05-09T19:26:22.154Z,98759.42
2023-05-09T19:28:48.813Z,98762.34
2023-05-09T19:31:15.767Z,98756.40
2023-05-09T19:33:45.771Z,98754.27
2023-05-09T19:36:13.036Z,98748.67
2023-05-09T19:38:39.833Z,98747.95
2023-05-09T19:41:06.534Z,98748.55
2023-05-09T19:43:33.106Z,98744.71
2023-05-09T19:46:00.130Z,98739.66
2023-05-09T19:48:26.903Z,98747.83
2023-05-09T19:50:56.614Z,98747.36
2023-05-09T19:53:23.344Z,98741.83
2023-05-09T19:55:49.984Z,98740.48
2023-05-09T19:58:17.724Z,98745.09
2023-05-09T20:00:45.330Z,98744.10
2023-05-09T20:03:12.165Z,98740.75
2023-05-09T20:08:18.262Z,98736.44
2023-05-09T20:10:44.783Z,98738.66
2023-05-09T20:13:11.462Z,98740.66
2023-05-09T20:15:38.019Z,98736.70
2023-05-09T20:18:07.204Z,98737.16
2023-05-09T20:20:34.295Z,98736.72
2023-05-09T20:23:00.887Z,98734.93
2023-05-09T20:25:27.541Z,98733.08
2023-05-09T20:30:34.567Z,98730.65
2023-05-09T20:33:01.287Z,98730.57
2023-05-09T20:35:27.994Z,98732.30
2023-05-09T20:37:55.001Z,98730.70
2023-05-09T20:40:21.551Z,98728.70
2023-05-09T20:45:28.698Z,98728.11
2023-05-09T20:47:55.425Z,98724.16
2023-05-09T20:50:21.965Z,98728.89
2023-05-09T20:55:39.099Z,98724.70
2023-05-09T20:58:05.668Z,98721.30
2023-05-09T21:00:33.017Z,98719.63
2023-05-09T21:02:59.719Z,98720.88
2023-05-09T21:05:26.343Z,98724.35
2023-05-09T21:07:53.232Z,98722.75
2023-05-09T21:10:19.838Z,98720.52
2023-05-09T21:12:46.384Z,98722.59
2023-05-09T21:15:13.906Z,98717.92
2023-05-09T21:17:40.591Z,98714.70
2023-05-09T21:20:07.728Z,98713.52
2023-05-09T21:22:34.271Z,98711.75
2023-05-09T21:25:00.988Z,98707.48
2023-05-09T21:27:29.794Z,98712.37
2023-05-09T21:29:56.289Z,98709.92
2023-05-09T21:32:23.242Z,98707.37
2023-05-09T21:34:49.897Z,98703.35
2023-05-09T21:37:16.503Z,98704.58
2023-05-09T21:39:43.087Z,98701.39
2023-05-09T21:42:09.629Z,98700.39
2023-05-09T21:44:36.255Z,98699.95
2023-05-09T21:47:02.902Z,98697.59
2023-05-09T21:49:29.646Z,98693.72
2023-05-09T21:51:56.278Z,98697.37
2023-05-09T21:54:23.370Z,98695.65
2023-05-09T21:56:50.048Z,98695.67
2023-05-09T21:59:17.882Z,98691.91
2023-05-09T22:01:46.047Z,98694.02
2023-05-09T22:04:12.738Z,98694.95
2023-05-09T22:06:41.684Z,98694.63
2023-05-09T22:09:09.079Z,98695.40
2023-05-09T22:14:17.542Z,98692.92
2023-05-09T22:16:44.316Z,98691.83
2023-05-09T22:19:10.897Z,98690.46
2023-05-09T22:21:38.097Z,98689.42
2023-05-09T22:24:04.816Z,98686.61
2023-05-09T22:26:31.392Z,98684.20
2023-05-09T22:28:57.956Z,98683.58
2023-05-09T22:31:24.549Z,98680.97
2023-05-09T22:33:52.174Z,98679.51
2023-05-09T22:36:18.870Z,98675.63
2023-05-09T22:38:45.545Z,98675.52
2023-05-09T22:41:12.131Z,98674.11
2023-05-09T22:43:39.848Z,98667.75
2023-05-09T22:46:06.827Z,98666.59
2023-05-09T22:48:33.861Z,98665.60
2023-05-09T22:51:00.773Z,98664.00
2023-05-09T22:53:28.224Z,98664.48
2023-05-09T22:55:54.960Z,98663.24
2023-05-09T22:58:22.738Z,98665.05
2023-05-09T23:00:49.568Z,98662.41
2023-05-09T23:03:16.583Z,98660.89
2023-05-09T23:05:43.924Z,98654.95
2023-05-09T23:08:10.602Z,98658.95
2023-05-09T23:10:37.188Z,98656.10
2023-05-09T23:13:04.992Z,98656.88
2023-05-09T23:15:31.638Z,98652.10
2023-05-09T23:17:58.474Z,98654.58
2023-05-09T23:20:25.793Z,98650.34
2023-05-09T23:22:52.444Z,98647.84
2023-05-09T23:25:19.172Z,98648.81
2023-05-09T23:27:47.121Z,98648.86
2023-05-09T23:30:13.867Z,98646.52
2023-05-09T23:32:40.634Z,98644.52
2023-05-09T23:35:07.509Z,98640.77
2023-05-09T23:37:34.265Z,98640.16
2023-05-09T23:40:01.056Z,98641.20
2023-05-09T23:42:27.711Z,98639.48
2023-05-09T23:44:54.405Z,98637.42
2023-05-09T23:47:21.056Z,98636.97
2023-05-09T23:49:47.874Z,98632.54
2023-05-09T23:52:14.924Z,98631.05
2023-05-09T23:54:41.648Z,98629.17
2023-05-09T23:57:08.826Z,98627.55
2023-05-09T23:59:35.425Z,98624.97
